createdAt,value
2022-09-11T00:00:22.202Z,15.90
2022-09-11T00:20:21.930Z,15.40
2022-09-11T00:40:21.671Z,14.20
2022-09-11T01:00:21.353Z,19.90
2022-09-11T01:20:21.088Z,17.00
2022-09-11T01:40:20.824Z,18.90
2022-09-11T02:00:20.700Z,31.60
2022-09-11T02:20:20.307Z,17.50
2022-09-11T02:40:20.187Z,19.90
2022-09-11T03:00:19.772Z,35.90
2022-09-11T03:20:19.511Z,23.70
2022-09-11T03:40:19.247Z,27.00
2022-09-11T04:00:18.997Z,19.90
2022-09-11T04:20:18.722Z,22.30
2022-09-11T04:40:18.602Z,30.00
2022-09-11T05:00:18.186Z,19.30
2022-09-11T05:20:17.903Z,84.80
2022-09-11T05:40:17.649Z,52.70
2022-09-11T06:00:17.372Z,18.70
2022-09-11T06:20:17.095Z,21.40
2022-09-11T06:40:16.865Z,20.10
2022-09-11T07:00:16.533Z,20.40
2022-09-11T07:20:16.268Z,13.30
2022-09-11T07:40:16.058Z,24.40
2022-09-11T08:00:15.723Z,18.70
2022-09-11T08:20:15.461Z,9.10
2022-09-11T08:40:15.241Z,6.00
2022-09-11T09:00:14.915Z,4.20
2022-09-11T09:20:14.633Z,8.80
2022-09-11T09:40:14.410Z,3.10
2022-09-11T10:00:14.101Z,4.90
2022-09-11T10:20:13.886Z,4.20
2022-09-11T10:40:13.661Z,6.20
2022-09-11T11:00:13.312Z,2.20
2022-09-11T11:20:13.235Z,0.70
2022-09-11T11:40:12.826Z,2.30
2022-09-11T12:01:12.436Z,1.30
2022-09-11T12:21:12.195Z,0.70
2022-09-11T12:42:16.414Z,0.70
2022-09-11T13:03:11.585Z,0.60
2022-09-11T13:23:11.344Z,1.50
2022-09-11T13:43:11.053Z,0.60
2022-09-11T14:03:10.794Z,0.40
2022-09-11T14:23:10.572Z,0.80
2022-09-11T14:43:10.264Z,0.60
2022-09-11T15:03:10.079Z,0.60
2022-09-11T15:23:09.763Z,0.40
2022-09-11T15:43:09.494Z,0.50
2022-09-11T16:03:09.201Z,1.40
2022-09-11T16:23:08.937Z,3.30
2022-09-11T16:43:08.628Z,1.10
2022-09-11T17:03:08.361Z,1.20
2022-09-11T17:23:08.122Z,0.80
2022-09-11T17:43:08.802Z,0.90
2022-09-11T18:03:07.530Z,1.20
2022-09-11T18:23:07.278Z,1.10
2022-09-11T18:43:06.998Z,1.00
2022-09-11T19:03:06.725Z,1.40
2022-09-11T19:23:06.453Z,2.30
2022-09-11T19:43:06.181Z,2.70
2022-09-11T20:03:05.912Z,1.70
2022-09-11T20:23:05.638Z,1.80
2022-09-11T20:43:05.367Z,2.00
2022-09-11T21:03:05.100Z,2.20
2022-09-11T21:23:04.837Z,3.10
2022-09-11T21:43:04.577Z,2.80
2022-09-11T22:03:04.281Z,2.10
2022-09-11T22:23:04.964Z,2.20
2022-09-11T22:43:04.710Z,2.40
2022-09-11T23:03:04.442Z,2.30
2022-09-11T23:23:03.951Z,1.60
2022-09-11T23:43:02.915Z,1.70
